Bathurst, Australia
Current Conditions -  °F | °C
As of 8:17 PM on Friday 24 Oct 2014 (Local Time) from YMDG Reporting Station
Broken Clouds Broken Clouds  
Wind Chill: 79°   Ceiling: 12000
Heat Index: 79°   Visibility: NA
Dew Point: 52°   Wind: 17mph
Humidity: 39%   Direction: 230°SW
Pressure: 29.97"   Gusts: 32mph
Location:  33.42°S, 149.57°E
Report Text: YMDG 240917Z AUTO 23015G28KT //// // BKN120 26/11 Q1015
Loading
Personal Weather Stations






























Interactive Weather Map
Tropical Storm Tracking
New forecast layout! Learn more

10-Day Weather Forecast

Advertisements
Track Severe Weather on mobile